world map with ENVA marked

ENVA - Airport

This information may not be accurate or current and is not valid for navigation or flight planning. No warranty of fitness for any purpose is made or implied.

flag of Norway

Donate via PayPal

Additional information is available on the NEW Great Circle Mapper

Location
City:  Trondheim, Norway
Near (Alt.):Stjørdal
Name:Vaernes
ICAO / IATA:ENVA / TRD

Details
Type:Airport (Aerodrome, Airfield)
Use:Public/Civil, Military
Latitude:63°27'27"N (63.457556)
Longitude:10°55'27"E (10.924250)
Datum:WGS 1984
Elevation:56 ft (17 m)
Runways:2
Longest:9347 × 148 ft (2849 × 45 m)

Time
Timezone:UTC+1 (DST+4)
Local Time:

Weather
METAR:ENVA  041420Z 11002KT CAVOK M06/M11 Q1010 NOSIG RMK WIND 670FT 07008KT
TAF:ENVA  041100Z 0412/0512 10007KT 9999 FEW040= TAF ENBR 041100Z 0412/0512 12005KT 9999 -RA FEW010 BKN020 TEMPO 0412/0424 3000 RADZ BR BKN012 PROB40 TEMPO 0500/0505 BKN005

Related Locations
Nearby:
Farthest:NZTB: 11426 mi / 18388 km
Terra Nova Bay [Mario Zucchelli Station], AQ

Find:

   beyond  
but within

Other Information
Maps:
Sources:

  

Airport Diagram

Airport diagram for ENVA

Airport diagram (OBSOLETE) from NGA

 


Great Circle Mapper   Great Circle Mapper
Great Circle Mapper FAQ   Great Circle Mapper FAQ
  Karl's Home Page
KLS²   KLS² Home
   GC on Facebook
Airlines of the World   Airlines of the World
Donate via PayPal


Copyright © 2004-2019, Karl L. Swartz. All rights reserved.
All trademarks mentioned herein belong to their respective owners.

Please see credits for attribution and copyright information.

Karl Swartz <karl@kls2.com>
  Powered by FreeBSD
Valid HTML 4.01!
Labeled with ICRA
hCard Microformat
Geo Microformat